Pagina principale
METAR-TAF:

METAR-TAF

Aeroporti :

Verona, Italia

Aeroporto di Verona-Villafranca

latitudine: 45-23N, longitudine: 010-52E, altezza: 67 m

Osservazione

Il bollettino è stato emesso 42 minuti fa, alle 15:20 UTC
Vento 5 kt da ovest
Temperature 11°C
Umidità 66%
Pressione 1011 hPa
Visibilità: 6000 m

METAR: LIPX 191520Z 26005KT 6000 NSC 11/05 Q1011

Ora: 17:02 (16:02 UTC)

Previsione

Il bollettino è stato emesso 2 ore e 2 minuti fa, alle 14:00 UTC
Previsione valida dal 19 alle 15 UTC al 19 alle 24 UTC
Vento 5 kt da direzioni variabili
Visibilità: 7000 m

TAF: LIPX 191400Z 1915/1924 VRB05KT 7000 NSC

Osservazioni e previsioni meteorologiche di più di 4000 aeroporti (messaggi METAR e TAF).

Le stazioni disponibili sono rappresentate dai dischi gialli e rossi sulla carta.

Puntare il mouse per vedere il nome della stazione.

Clicca sopra per visualizzare le osservazioni e previsioni meteorologiche.

Per cambiare la mappa : fare clic sui pulsanti verdi con una croce nera per ingrandire, il pulsante verde con un trattino per diminuire, o sulla freccia verde per le mappe adiacenti.


METAR-TAF: